Time;durP1;ratioP1;P1;durP2;ratioP2;P2;SDS_P1;SDS_P2;PMS_P1;PMS_P2;Temp;Humidity;BMP_temperature;BMP_pressure;BME280_temperature;BME280_humidity;BME280_pressure;Samples;Min_cycle;Max_cycle;Signal;HPM_P1;HPM_P2
2022/09/03 00:01:41;;;;;;;0.40;0.10;;;17.00;99.90;;;;;;5028049;28;20030;-77
2022/09/03 00:04:36;;;;;;;1.48;0.10;;;16.90;99.90;;;;;;5012027;28;20052;-77
2022/09/03 00:07:07;;;;;;;0.50;0.10;;;16.90;99.90;;;;;;5025387;28;20426;-77
2022/09/03 00:09:42;;;;;;;0.70;0.10;;;16.90;99.90;;;;;;5025928;28;20029;-75
2022/09/03 00:12:28;;;;;;;0.75;0.10;;;16.80;99.90;;;;;;5045267;28;20473;-77
2022/09/03 00:15:06;;;;;;;0.30;0.10;;;16.80;99.90;;;;;;5025641;28;20033;-76
2022/09/03 00:17:39;;;;;;;0.45;0.17;;;16.80;99.90;;;;;;5028770;28;20528;-78
2022/09/03 00:20:18;;;;;;;0.65;0.10;;;16.80;99.90;;;;;;5044927;28;20679;-77
2022/09/03 00:22:48;;;;;;;1.40;0.17;;;16.80;99.90;;;;;;5026688;28;20494;-77
2022/09/03 00:25:18;;;;;;;;;;;16.70;99.90;;;;;;5027968;28;20290;-77
2022/09/03 00:27:50;;;;;;;0.47;0.10;;;16.70;99.90;;;;;;5027903;28;19909;-78
2022/09/03 00:30:17;;;;;;;1.60;0.17;;;16.70;99.90;;;;;;5044883;28;20029;-77
2022/09/03 00:32:46;;;;;;;0.40;0.10;;;16.70;99.90;;;;;;5029335;28;20064;-78
2022/09/03 00:35:30;;;;;;;0.20;0.10;;;16.70;99.90;;;;;;5027726;28;20021;-78
2022/09/03 00:37:58;;;;;;;0.55;0.20;;;16.70;99.90;;;;;;5043209;28;20402;-77
2022/09/03 00:40:46;;;;;;;0.35;0.10;;;16.60;99.90;;;;;;5028213;28;20538;-78
2022/09/03 00:43:14;;;;;;;0.45;0.10;;;16.60;99.90;;;;;;5026074;28;20496;-78
2022/09/03 00:46:06;;;;;;;0.65;0.10;;;16.60;99.90;;;;;;5028081;28;20039;-77
2022/09/03 00:49:15;;;;;;;1.30;0.13;;;16.50;99.90;;;;;;5043405;28;20118;-78
2022/09/03 00:52:04;;;;;;;1.13;0.10;;;16.50;99.90;;;;;;5045102;28;20143;-77
2022/09/03 00:54:51;;;;;;;0.40;0.10;;;16.50;99.90;;;;;;5026975;28;20029;-77
2022/09/03 00:57:34;;;;;;;0.30;0.10;;;16.50;99.90;;;;;;5010316;28;20041;-77
2022/09/03 01:00:12;;;;;;;0.63;0.10;;;16.40;99.90;;;;;;5042991;28;20017;-77
2022/09/03 01:02:56;;;;;;;0.73;0.10;;;16.40;99.90;;;;;;5025049;28;20485;-79
2022/09/03 01:05:58;;;;;;;1.13;0.10;;;16.40;99.90;;;;;;5011397;28;20040;-78
2022/09/03 01:08:50;;;;;;;1.00;0.10;;;16.40;99.90;;;;;;5042467;28;20021;-77
2022/09/03 01:11:50;;;;;;;0.30;0.10;;;16.40;99.90;;;;;;5042037;28;20037;-77
2022/09/03 01:14:46;;;;;;;0.30;0.10;;;16.30;99.90;;;;;;5025929;28;20534;-77
2022/09/03 01:17:55;;;;;;;0.50;0.20;;;16.30;99.90;;;;;;5045670;28;20496;-77
2022/09/03 01:20:33;;;;;;;0.60;0.10;;;16.30;99.90;;;;;;4907398;29;20043;-78
2022/09/03 01:23:05;;;;;;;1.17;0.10;;;16.20;99.90;;;;;;4907325;29;20413;-76
2022/09/03 01:25:53;;;;;;;0.35;0.10;;;16.20;99.90;;;;;;4921471;29;20497;-77
2022/09/03 01:28:54;;;;;;;0.75;0.10;;;16.20;99.90;;;;;;4907249;29;20624;-77
2022/09/03 01:31:50;;;;;;;0.50;0.10;;;16.20;99.90;;;;;;4902443;29;20553;-77
2022/09/03 01:34:19;;;;;;;0.50;0.10;;;16.10;99.90;;;;;;4924577;29;20563;-78
2022/09/03 01:37:29;;;;;;;0.40;0.13;;;16.10;99.90;;;;;;4925220;29;20034;-77
2022/09/03 01:40:06;;;;;;;0.63;0.15;;;16.00;99.90;;;;;;4924476;29;20117;-77
2022/09/03 01:43:01;;;;;;;0.35;0.10;;;16.00;99.90;;;;;;4909233;29;20043;-78
2022/09/03 01:45:59;;;;;;;0.20;0.10;;;15.90;99.90;;;;;;4918458;29;20099;-77
2022/09/03 01:48:46;;;;;;;0.88;0.20;;;15.90;99.90;;;;;;4905623;29;20044;-77
2022/09/03 01:51:12;;;;;;;0.25;0.10;;;15.90;99.90;;;;;;4904011;29;20048;-78
2022/09/03 01:53:56;;;;;;;0.55;0.20;;;15.90;99.90;;;;;;4943862;28;20125;-78
2022/09/03 01:56:47;;;;;;;1.20;0.13;;;15.90;99.90;;;;;;5026123;28;20026;-77
2022/09/03 01:59:26;;;;;;;1.63;0.10;;;15.80;99.90;;;;;;5025046;28;20428;-77
2022/09/03 02:02:01;;;;;;;0.57;0.10;;;15.80;99.90;;;;;;5009443;28;20032;-77
2022/09/03 02:04:27;;;;;;;0.80;0.10;;;15.70;99.90;;;;;;5024863;28;20021;-77
2022/09/03 02:06:56;;;;;;;0.57;0.10;;;15.70;99.90;;;;;;5026103;28;20057;-78
2022/09/03 02:09:22;;;;;;;0.40;0.10;;;15.70;99.90;;;;;;5042251;28;20021;-77
2022/09/03 02:12:02;;;;;;;0.40;0.15;;;15.70;99.90;;;;;;5028079;28;20465;-77
2022/09/03 02:14:29;;;;;;;0.57;0.10;;;15.60;99.90;;;;;;5024857;28;20457;-77
2022/09/03 02:16:59;;;;;;;0.93;0.20;;;15.60;99.90;;;;;;5043845;28;20484;-77
2022/09/03 02:19:26;;;;;;;;;;;15.60;99.90;;;;;;5041950;28;20036;-78
2022/09/03 02:21:54;;;;;;;0.52;0.20;;;15.60;99.90;;;;;;5042086;28;19913;-77
2022/09/03 02:24:20;;;;;;;1.88;0.20;;;15.50;99.90;;;;;;5024859;28;20033;-78
2022/09/03 02:26:46;;;;;;;0.30;0.20;;;15.50;99.90;;;;;;5025914;28;20481;-77
2022/09/03 02:29:14;;;;;;;0.43;0.20;;;15.50;99.90;;;;;;5041371;28;20026;-77
2022/09/03 02:31:39;;;;;;;0.57;0.10;;;15.50;99.90;;;;;;5026098;28;20073;-77
2022/09/03 02:34:05;;;;;;;0.35;0.10;;;15.50;99.90;;;;;;5019590;28;20068;-77
2022/09/03 02:36:36;;;;;;;0.40;0.10;;;15.40;99.90;;;;;;5023959;28;20424;-78
2022/09/03 02:39:01;;;;;;;0.45;0.10;;;15.40;99.90;;;;;;5042769;28;20078;-77
2022/09/03 02:41:27;;;;;;;0.73;0.10;;;15.30;99.90;;;;;;5025514;28;20040;-78
2022/09/03 02:44:11;;;;;;;0.57;0.15;;;15.40;99.90;;;;;;5044416;28;20033;-77
2022/09/03 02:46:45;;;;;;;1.17;0.10;;;15.30;99.90;;;;;;5041382;28;20655;-77
2022/09/03 02:49:11;;;;;;;0.80;0.20;;;15.30;99.90;;;;;;5043080;28;20021;-77
2022/09/03 02:51:40;;;;;;;1.35;0.10;;;15.30;99.90;;;;;;5042109;28;20083;-77
2022/09/03 02:54:07;;;;;;;0.75;0.20;;;15.30;99.90;;;;;;5044250;28;20457;-77
2022/09/03 02:56:33;;;;;;;0.40;0.20;;;15.30;99.90;;;;;;5023009;28;20033;-77
2022/09/03 02:58:59;;;;;;;0.45;0.10;;;15.20;99.90;;;;;;5027268;28;20443;-77
2022/09/03 03:01:25;;;;;;;0.50;0.10;;;15.20;99.90;;;;;;5024595;28;20060;-77
2022/09/03 03:03:51;;;;;;;0.25;0.05;;;15.20;99.90;;;;;;5026116;28;20374;-79
2022/09/03 03:06:21;;;;;;;0.52;0.10;;;15.20;99.90;;;;;;5043623;28;20037;-77
2022/09/03 03:08:48;;;;;;;0.35;0.10;;;15.20;99.90;;;;;;5041784;28;20025;-77
2022/09/03 03:11:17;;;;;;;0.70;0.15;;;15.20;99.90;;;;;;5042652;28;20037;-77
2022/09/03 03:13:43;;;;;;;0.35;0.10;;;15.20;99.90;;;;;;5026418;28;20040;-77
2022/09/03 03:16:09;;;;;;;0.60;0.10;;;15.10;99.90;;;;;;5009283;28;20389;-77
2022/09/03 03:18:35;;;;;;;0.90;0.17;;;15.10;99.90;;;;;;5044173;28;20044;-76
2022/09/03 03:21:12;;;;;;;0.30;0.10;;;15.10;99.90;;;;;;5023951;28;20473;-78
2022/09/03 03:23:38;;;;;;;0.35;0.10;;;15.20;99.90;;;;;;5020524;28;20029;-78
2022/09/03 03:26:10;;;;;;;1.05;0.20;;;15.10;99.90;;;;;;5040638;28;20024;-77
2022/09/03 03:28:35;;;;;;;0.73;0.20;;;15.10;99.90;;;;;;5042706;28;20038;-77
2022/09/03 03:31:12;;;;;;;0.38;0.10;;;15.10;99.90;;;;;;5044642;28;20123;-77
2022/09/03 03:33:39;;;;;;;1.50;0.10;;;15.10;99.90;;;;;;5044534;28;20025;-78
2022/09/03 03:36:11;;;;;;;0.68;0.20;;;15.10;99.90;;;;;;5028976;28;20057;-77
2022/09/03 03:38:37;;;;;;;0.28;0.10;;;15.00;99.90;;;;;;5047595;28;20052;-77
2022/09/03 03:41:10;;;;;;;0.60;0.10;;;15.00;99.90;;;;;;5045135;28;20049;-78
2022/09/03 03:43:35;;;;;;;0.70;0.10;;;15.00;99.90;;;;;;5029564;28;20501;-78
2022/09/03 03:46:01;;;;;;;0.63;0.13;;;15.00;99.90;;;;;;5028179;28;20032;-78
2022/09/03 03:48:27;;;;;;;0.70;0.10;;;15.00;99.90;;;;;;5027703;28;20033;-77
2022/09/03 03:50:53;;;;;;;0.60;0.20;;;14.90;99.90;;;;;;5046378;28;20393;-77
2022/09/03 03:53:18;;;;;;;0.25;0.10;;;14.90;99.90;;;;;;5011161;28;20017;-77
2022/09/03 03:55:55;;;;;;;0.25;0.10;;;14.90;99.90;;;;;;5012413;28;20456;-78
2022/09/03 03:58:21;;;;;;;0.28;0.10;;;14.90;99.90;;;;;;5026987;28;20052;-77
2022/09/03 04:00:46;;;;;;;0.20;0.10;;;14.90;99.90;;;;;;5028353;28;20025;-77
2022/09/03 04:03:12;;;;;;;0.68;0.10;;;14.90;99.90;;;;;;5026867;28;20385;-78
2022/09/03 04:05:38;;;;;;;0.70;0.20;;;14.90;99.90;;;;;;5024026;28;20025;-77
2022/09/03 04:08:03;;;;;;;0.70;0.20;;;14.90;99.90;;;;;;5011477;28;20396;-77
2022/09/03 04:10:29;;;;;;;0.45;0.10;;;14.90;99.90;;;;;;5028743;28;20025;-78
2022/09/03 04:12:55;;;;;;;1.05;0.13;;;14.80;99.90;;;;;;5043531;28;20021;-77
2022/09/03 04:15:20;;;;;;;0.40;0.10;;;14.80;99.90;;;;;;5027695;28;20079;-77
2022/09/03 04:17:46;;;;;;;1.00;0.20;;;14.90;99.90;;;;;;5045321;28;20139;-77
2022/09/03 04:20:12;;;;;;;0.50;0.10;;;14.80;99.90;;;;;;5025924;28;20025;-76
2022/09/03 04:22:37;;;;;;;1.13;0.10;;;14.80;99.90;;;;;;5027009;28;20036;-77
2022/09/03 04:25:03;;;;;;;0.98;0.10;;;14.70;99.90;;;;;;5025058;28;20060;-77
2022/09/03 04:27:30;;;;;;;0.10;0.10;;;14.60;99.90;;;;;;5011346;28;20377;-77
2022/09/03 04:29:55;;;;;;;0.52;0.10;;;14.60;99.90;;;;;;5027737;28;20025;-77
2022/09/03 04:35:05;;;;;;;1.73;0.10;;;14.50;99.90;;;;;;5028635;28;20020;-78
2022/09/03 04:37:32;;;;;;;0.90;0.20;;;14.50;99.90;;;;;;5045431;28;20485;-77
2022/09/03 04:39:57;;;;;;;0.63;0.10;;;14.50;99.90;;;;;;5028220;28;20141;-77
2022/09/03 04:42:23;;;;;;;0.50;0.10;;;14.50;99.90;;;;;;5010972;28;20594;-78
2022/09/03 04:44:49;;;;;;;0.55;0.10;;;14.50;99.90;;;;;;5026991;28;20029;-77
2022/09/03 04:47:15;;;;;;;0.30;0.10;;;14.50;99.90;;;;;;5045612;28;20079;-76
2022/09/03 04:49:41;;;;;;;0.30;0.10;;;14.40;99.90;;;;;;5024070;28;20123;-76
2022/09/03 04:52:06;;;;;;;0.50;0.20;;;14.40;99.90;;;;;;5026202;28;20044;-76
2022/09/03 04:54:32;;;;;;;0.47;0.10;;;14.40;99.90;;;;;;5028037;28;20474;-77
2022/09/03 04:56:58;;;;;;;1.40;0.10;;;14.40;99.90;;;;;;5026027;28;20040;-76
2022/09/03 04:59:23;;;;;;;0.25;0.10;;;14.40;99.90;;;;;;5012817;28;20080;-77
2022/09/03 05:01:51;;;;;;;1.90;0.15;;;14.30;99.90;;;;;;5044542;28;20039;-77
2022/09/03 05:04:18;;;;;;;0.30;0.10;;;14.30;99.90;;;;;;5025842;28;20420;-76
2022/09/03 05:06:44;;;;;;;0.38;0.10;;;14.30;99.90;;;;;;5027343;28;20041;-77
2022/09/03 05:09:10;;;;;;;0.93;0.10;;;14.30;99.90;;;;;;5046094;28;20186;-76
2022/09/03 05:11:36;;;;;;;0.40;0.20;;;14.30;99.90;;;;;;5045731;28;20485;-76
2022/09/03 05:14:02;;;;;;;0.45;0.10;;;14.30;99.90;;;;;;5008431;28;20033;-77
2022/09/03 05:16:29;;;;;;;0.20;0.10;;;14.30;99.90;;;;;;5024748;28;20674;-77
2022/09/03 05:18:58;;;;;;;0.40;0.10;;;14.30;99.90;;;;;;5044291;28;20063;-76
2022/09/03 05:21:24;;;;;;;0.55;0.10;;;14.30;99.90;;;;;;5041665;28;20047;-77
2022/09/03 05:23:51;;;;;;;0.30;0.10;;;14.30;99.90;;;;;;5023392;28;20049;-76
2022/09/03 05:26:24;;;;;;;0.50;0.10;;;14.40;99.90;;;;;;5028932;28;20036;-76
2022/09/03 05:28:56;;;;;;;0.40;0.10;;;14.40;99.90;;;;;;5025358;28;20405;-77
2022/09/03 05:31:25;;;;;;;0.82;0.10;;;14.30;99.90;;;;;;5009503;28;20079;-78
2022/09/03 05:33:56;;;;;;;0.50;0.10;;;14.30;99.90;;;;;;5023167;28;20424;-77
2022/09/03 05:36:27;;;;;;;0.50;0.13;;;14.40;99.90;;;;;;5025426;28;20363;-77
2022/09/03 05:38:53;;;;;;;0.80;0.10;;;14.50;99.90;;;;;;5043127;28;20424;-76
2022/09/03 05:41:20;;;;;;;0.47;0.10;;;14.40;99.90;;;;;;5040470;28;20044;-76
2022/09/03 05:43:53;;;;;;;1.30;0.10;;;14.50;99.90;;;;;;5027633;28;20035;-76
2022/09/03 05:46:21;;;;;;;0.82;0.20;;;14.50;99.90;;;;;;5047314;28;20449;-77
2022/09/03 05:48:46;;;;;;;0.32;0.10;;;14.50;99.90;;;;;;5031696;28;20100;-76
2022/09/03 05:51:15;;;;;;;0.90;0.10;;;14.50;99.90;;;;;;5064129;28;20064;-76
2022/09/03 05:53:42;;;;;;;0.40;0.10;;;14.50;99.90;;;;;;5043384;28;20116;-78
2022/09/03 05:56:11;;;;;;;0.45;0.15;;;14.60;99.90;;;;;;5064038;28;20234;-77
2022/09/03 05:58:43;;;;;;;0.40;0.10;;;14.60;99.90;;;;;;5061093;28;20040;-77
2022/09/03 06:01:17;;;;;;;0.57;0.10;;;14.60;99.90;;;;;;5028035;28;20123;-77
2022/09/03 06:03:44;;;;;;;0.45;0.10;;;14.70;99.90;;;;;;5045202;28;20017;-76
2022/09/03 06:06:10;;;;;;;1.48;0.80;;;14.70;99.90;;;;;;5065696;28;20032;-76
2022/09/03 06:08:37;;;;;;;0.65;0.10;;;14.80;99.90;;;;;;5065491;28;20076;-76
2022/09/03 06:11:03;;;;;;;0.47;0.10;;;14.80;99.90;;;;;;5045325;28;20032;-77
2022/09/03 06:13:30;;;;;;;1.75;0.10;;;14.90;99.90;;;;;;5047546;28;20539;-76
2022/09/03 06:15:57;;;;;;;0.40;0.10;;;14.90;99.90;;;;;;5045674;28;20029;-77
2022/09/03 06:18:24;;;;;;;0.70;0.10;;;15.00;99.90;;;;;;5026933;28;20039;-76
2022/09/03 06:21:03;;;;;;;0.50;0.10;;;15.10;99.90;;;;;;5060774;28;20115;-77
2022/09/03 06:23:30;;;;;;;1.85;0.52;;;15.20;99.90;;;;;;5040732;28;20046;-77
2022/09/03 06:26:01;;;;;;;0.25;0.10;;;15.40;99.90;;;;;;5044190;28;20025;-77
2022/09/03 06:28:27;;;;;;;0.40;0.10;;;15.50;99.90;;;;;;5030698;28;20031;-77
2022/09/03 06:30:56;;;;;;;0.77;0.10;;;15.60;99.90;;;;;;5044741;28;20089;-77
2022/09/03 06:33:23;;;;;;;0.65;0.10;;;15.70;99.90;;;;;;5043527;28;20032;-77
2022/09/03 06:35:58;;;;;;;0.75;0.10;;;15.90;99.90;;;;;;5047662;28;20473;-76
2022/09/03 06:38:26;;;;;;;0.43;0.10;;;16.00;99.90;;;;;;5063285;28;20067;-78
2022/09/03 06:40:56;;;;;;;0.63;0.10;;;16.20;99.90;;;;;;5077037;28;20136;-77
2022/09/03 06:43:23;;;;;;;3.10;0.20;;;16.40;99.90;;;;;;5062553;28;20077;-78
2022/09/03 06:46:12;;;;;;;0.50;0.10;;;16.50;99.90;;;;;;5030474;28;20025;-78
2022/09/03 06:48:39;;;;;;;0.68;0.10;;;16.70;99.90;;;;;;5061298;28;20039;-76
2022/09/03 06:51:07;;;;;;;0.50;0.10;;;16.80;99.90;;;;;;5044518;28;20040;-76
2022/09/03 06:53:36;;;;;;;0.63;0.10;;;17.00;99.90;;;;;;5031600;28;20033;-78
2022/09/03 06:56:06;;;;;;;0.43;0.10;;;17.10;99.90;;;;;;5042486;28;20077;-77
2022/09/03 06:58:36;;;;;;;0.63;0.10;;;17.30;99.90;;;;;;5043610;28;20093;-79
2022/09/03 07:01:10;;;;;;;1.20;0.20;;;17.40;99.90;;;;;;5061867;28;20116;-77
2022/09/03 07:03:37;;;;;;;1.38;0.10;;;17.50;99.90;;;;;;5041653;28;20050;-77
2022/09/03 07:06:07;;;;;;;0.57;0.10;;;17.70;99.90;;;;;;5065116;28;20021;-77
2022/09/03 07:08:34;;;;;;;0.50;0.10;;;17.90;99.90;;;;;;5067789;28;20036;-77
2022/09/03 07:11:08;;;;;;;1.48;0.10;;;18.00;99.90;;;;;;5064301;28;20052;-77
2022/09/03 07:13:53;;;;;;;0.90;0.20;;;18.20;99.90;;;;;;5045921;28;20071;-76
2022/09/03 07:16:23;;;;;;;3.10;0.35;;;18.40;99.90;;;;;;5032799;28;20031;-77
2022/09/03 07:18:49;;;;;;;;;;;18.50;99.90;;;;;;5066019;28;20033;-77
2022/09/03 07:21:17;;;;;;;0.75;0.10;;;18.70;99.90;;;;;;5045878;28;19969;-77
2022/09/03 07:23:44;;;;;;;0.60;0.10;;;19.00;99.90;;;;;;5040885;28;20043;-78
2022/09/03 07:26:15;;;;;;;0.50;0.10;;;19.10;99.90;;;;;;5065461;28;20025;-78
2022/09/03 07:28:42;;;;;;;0.55;0.10;;;19.10;99.90;;;;;;5045506;28;20056;-78
2022/09/03 07:31:11;;;;;;;1.38;0.10;;;19.30;99.90;;;;;;5053534;28;20036;-77
2022/09/03 07:33:38;;;;;;;1.00;0.10;;;19.40;99.90;;;;;;5067021;28;20111;-77
2022/09/03 07:36:06;;;;;;;0.70;0.10;;;19.70;99.90;;;;;;5047812;28;20056;-77
2022/09/03 07:38:33;;;;;;;0.43;0.10;;;19.80;99.90;;;;;;5066026;28;20059;-77
2022/09/03 07:41:01;;;;;;;0.65;0.10;;;19.90;99.90;;;;;;5063626;28;20056;-78
2022/09/03 07:43:29;;;;;;;0.57;0.10;;;20.10;99.90;;;;;;5066561;28;20025;-78
2022/09/03 07:45:55;;;;;;;0.68;0.10;;;20.10;99.90;;;;;;5047966;28;20049;-77
2022/09/03 07:48:22;;;;;;;1.48;0.10;;;20.20;99.90;;;;;;5066174;28;20072;-77
2022/09/03 07:50:47;;;;;;;0.30;0.10;;;20.40;99.90;;;;;;5044756;28;20047;-78
2022/09/03 07:53:15;;;;;;;0.32;0.10;;;20.60;99.90;;;;;;5048560;28;20036;-77
2022/09/03 07:55:43;;;;;;;3.20;0.20;;;20.80;99.90;;;;;;5027582;28;20493;-78
2022/09/03 07:58:11;;;;;;;1.17;0.17;;;20.70;99.90;;;;;;5030216;28;20035;-79
2022/09/03 08:00:37;;;;;;;0.57;0.10;;;20.90;99.90;;;;;;5048412;28;20130;-77
2022/09/03 08:03:07;;;;;;;1.27;0.10;;;20.90;99.90;;;;;;5065270;28;20074;-78
2022/09/03 08:05:35;;;;;;;1.35;0.10;;;20.90;99.90;;;;;;5066477;28;20025;-78
2022/09/03 08:08:04;;;;;;;1.45;0.10;;;20.90;99.90;;;;;;5066520;28;20578;-76
2022/09/03 08:10:34;;;;;;;0.30;0.10;;;21.10;99.90;;;;;;5033555;28;20072;-76
2022/09/03 08:13:00;;;;;;;0.52;0.03;;;21.30;99.90;;;;;;5031201;28;20034;-77
2022/09/03 08:15:25;;;;;;;2.25;0.20;;;21.30;99.90;;;;;;5041995;28;20352;-77
2022/09/03 08:17:51;;;;;;;4.15;0.10;;;21.60;99.90;;;;;;5031259;28;20025;-77
2022/09/03 08:20:18;;;;;;;0.98;0.10;;;21.90;99.90;;;;;;5064339;28;20464;-76
2022/09/03 08:22:44;;;;;;;0.52;0.10;;;22.10;99.90;;;;;;5045285;28;20396;-79
2022/09/03 08:25:09;;;;;;;1.15;0.08;;;22.10;99.90;;;;;;5045586;28;20031;-77
2022/09/03 08:27:35;;;;;;;2.28;0.10;;;22.30;99.90;;;;;;5046509;28;20500;-79
2022/09/03 08:30:02;;;;;;;0.85;0.10;;;22.60;99.90;;;;;;5032467;28;20473;-76
2022/09/03 08:32:28;;;;;;;1.05;0.10;;;22.70;99.90;;;;;;5046078;28;20067;-77
2022/09/03 08:34:54;;;;;;;0.40;0.10;;;22.60;99.90;;;;;;5065466;28;20488;-80
2022/09/03 08:37:19;;;;;;;0.30;0.10;;;22.70;99.90;;;;;;5063669;28;20534;-77
2022/09/03 08:39:45;;;;;;;3.50;0.10;;;22.70;99.90;;;;;;5065420;28;20029;-77
2022/09/03 08:42:45;;;;;;;2.10;0.20;;;22.70;99.90;;;;;;5064889;28;20031;-79
2022/09/03 08:45:15;;;;;;;;;;;23.00;99.90;;;;;;5044413;28;20051;-79
2022/09/03 08:48:02;;;;;;;0.65;0.10;;;23.10;99.90;;;;;;5029522;28;19995;-79
2022/09/03 08:50:31;;;;;;;1.10;0.10;;;23.30;99.90;;;;;;5064388;28;20034;-77
2022/09/03 08:53:00;;;;;;;0.50;0.10;;;23.40;99.90;;;;;;5030942;28;20454;-78
2022/09/03 08:55:41;;;;;;;0.35;0.10;;;23.50;99.90;;;;;;5045400;28;20143;-78
2022/09/03 08:58:17;;;;;;;0.55;0.10;;;23.70;99.90;;;;;;5047492;28;20028;-77
2022/09/03 09:01:01;;;;;;;0.40;0.10;;;24.00;99.90;;;;;;5047065;28;20078;-77
2022/09/03 09:03:38;;;;;;;0.40;0.10;;;24.10;99.90;;;;;;5060477;28;20028;-78
2022/09/03 09:06:22;;;;;;;0.30;0.10;;;23.90;99.90;;;;;;5046093;28;20091;-77
2022/09/03 09:09:14;;;;;;;1.20;0.10;;;23.80;99.90;;;;;;5076009;28;20473;-77
2022/09/03 09:11:48;;;;;;;0.45;0.10;;;23.90;99.90;;;;;;4966797;28;20050;-80
2022/09/03 09:14:39;;;;;;;0.47;0.05;;;23.90;99.90;;;;;;4956797;28;20042;-78
2022/09/03 09:17:23;;;;;;;0.45;0.10;;;24.00;99.80;;;;;;5002167;28;20038;-77
2022/09/03 09:20:08;;;;;;;0.15;0.10;;;24.10;99.90;;;;;;4984005;28;20548;-77
2022/09/03 09:22:57;;;;;;;1.23;0.10;;;24.20;99.90;;;;;;4980829;28;20402;-77
2022/09/03 09:25:25;;;;;;;0.60;0.05;;;24.30;99.60;;;;;;5002189;28;20114;-77
2022/09/03 09:28:01;;;;;;;0.50;0.10;;;24.30;99.90;;;;;;4983870;28;20034;-77
2022/09/03 09:30:29;;;;;;;1.58;0.10;;;24.50;99.70;;;;;;5001197;28;20077;-79
2022/09/03 09:32:55;;;;;;;1.65;0.10;;;24.70;99.60;;;;;;4986946;28;20082;-80
2022/09/03 09:35:21;;;;;;;0.20;0.10;;;24.90;99.90;;;;;;5002306;28;20037;-80
2022/09/03 09:37:52;;;;;;;0.93;0.10;;;24.70;99.40;;;;;;5002845;28;20030;-79
2022/09/03 09:40:31;;;;;;;1.23;0.10;;;24.50;99.70;;;;;;5015308;28;20097;-80
2022/09/03 09:43:03;;;;;;;1.90;0.20;;;25.10;99.90;;;;;;5003370;28;20034;-79
2022/09/03 09:45:32;;;;;;;0.57;0.10;;;25.10;99.30;;;;;;4986200;28;20029;-82
2022/09/03 09:47:59;;;;;;;0.55;0.10;;;25.00;99.60;;;;;;4998496;28;20033;-81
2022/09/03 09:50:24;;;;;;;0.95;0.10;;;25.20;99.50;;;;;;5030637;28;20036;-80
2022/09/03 09:53:07;;;;;;;4.10;0.17;;;25.80;99.50;;;;;;5063248;28;20040;-79
2022/09/03 09:55:33;;;;;;;1.08;0.10;;;25.90;99.30;;;;;;5078915;28;20036;-79
2022/09/03 09:58:10;;;;;;;0.70;0.10;;;25.60;99.00;;;;;;5062648;28;20036;-81
2022/09/03 10:00:38;;;;;;;0.98;0.08;;;25.80;98.60;;;;;;5044580;28;20052;-78
2022/09/03 10:03:09;;;;;;;4.18;0.10;;;25.60;99.10;;;;;;5040435;28;20033;-81
2022/09/03 10:05:38;;;;;;;0.75;0.10;;;25.60;98.80;;;;;;5061166;28;20389;-78
2022/09/03 10:08:18;;;;;;;0.93;0.10;;;25.90;98.60;;;;;;5032229;28;20499;-79
2022/09/03 10:10:50;;;;;;;0.52;0.10;;;25.70;98.80;;;;;;5045324;28;20032;-81
2022/09/03 10:13:40;;;;;;;0.73;0.10;;;25.90;98.90;;;;;;5025812;28;20479;-76
2022/09/03 10:16:26;;;;;;;1.27;0.00;;;26.00;98.20;;;;;;5045022;28;20047;-79
2022/09/03 10:19:16;;;;;;;0.50;0.10;;;26.00;98.50;;;;;;5077153;28;20116;-77
2022/09/03 10:22:01;;;;;;;0.75;0.10;;;25.90;98.50;;;;;;5010499;28;20083;-78
2022/09/03 10:24:47;;;;;;;0.17;0.00;;;26.00;99.00;;;;;;5043020;28;20060;-78
2022/09/03 10:27:17;;;;;;;0.40;0.00;;;26.20;98.30;;;;;;5044808;28;20025;-79
2022/09/03 10:29:43;;;;;;;0.88;0.10;;;26.30;98.70;;;;;;5027179;28;20028;-80
2022/09/03 10:32:12;;;;;;;0.40;0.10;;;26.80;98.10;;;;;;5045948;28;20164;-77
2022/09/03 10:34:49;;;;;;;0.27;0.03;;;26.50;98.10;;;;;;5024435;28;20071;-77
2022/09/03 10:37:28;;;;;;;2.55;0.10;;;26.60;98.60;;;;;;5030385;28;20042;-78
2022/09/03 10:40:12;;;;;;;0.20;0.10;;;26.50;98.20;;;;;;5046075;28;20091;-79
2022/09/03 10:42:47;;;;;;;1.08;0.10;;;27.00;98.20;;;;;;5028678;28;20127;-78
2022/09/03 10:45:38;;;;;;;4.78;0.10;;;26.40;97.80;;;;;;5044435;28;20029;-78
2022/09/03 10:48:18;;;;;;;0.50;0.10;;;26.20;98.00;;;;;;5025797;28;20029;-79
2022/09/03 10:50:49;;;;;;;1.40;0.10;;;26.80;98.30;;;;;;5043323;28;20031;-77
2022/09/03 10:53:45;;;;;;;0.45;0.10;;;27.10;97.90;;;;;;5041233;28;20511;-78
2022/09/03 10:56:17;;;;;;;1.08;0.10;;;26.90;97.50;;;;;;5046975;28;20108;-79
2022/09/03 10:59:19;;;;;;;1.70;0.10;;;27.20;98.50;;;;;;5042614;28;20029;-76
2022/09/03 11:02:16;;;;;;;0.68;0.10;;;26.90;97.70;;;;;;5026267;28;20048;-77
2022/09/03 11:04:50;;;;;;;1.27;0.10;;;27.20;97.80;;;;;;5030772;28;20032;-78
2022/09/03 11:07:22;;;;;;;0.40;0.10;;;27.10;97.70;;;;;;5044365;28;20025;-76
2022/09/03 11:09:59;;;;;;;0.50;0.08;;;27.30;97.70;;;;;;5028000;28;20048;-76
2022/09/03 11:12:33;;;;;;;1.20;0.10;;;27.00;97.30;;;;;;5023288;28;20194;-77
2022/09/03 11:15:36;;;;;;;0.20;0.10;;;27.20;98.20;;;;;;5040104;28;20523;-77
2022/09/03 11:18:26;;;;;;;0.65;0.10;;;27.50;97.70;;;;;;4980536;28;20045;-77
2022/09/03 11:20:56;;;;;;;1.85;0.00;;;27.70;97.50;;;;;;5002352;28;20223;-77
2022/09/03 11:23:26;;;;;;;1.52;0.10;;;27.80;97.40;;;;;;5012482;28;20399;-78
2022/09/03 11:25:56;;;;;;;0.40;0.10;;;27.30;97.80;;;;;;5041559;28;20039;-77
2022/09/03 11:28:27;;;;;;;0.30;0.00;;;28.00;98.40;;;;;;5042618;28;20503;-78
2022/09/03 11:31:17;;;;;;;0.52;0.10;;;28.00;97.50;;;;;;5026852;28;20033;-77
2022/09/03 11:33:53;;;;;;;1.42;0.10;;;28.10;97.50;;;;;;5021022;28;20025;-76
2022/09/03 11:36:28;;;;;;;0.60;0.08;;;27.80;97.60;;;;;;5024690;28;20025;-76
2022/09/03 11:38:53;;;;;;;0.73;0.10;;;28.00;97.70;;;;;;5023294;28;20037;-78
2022/09/03 11:41:33;;;;;;;0.80;0.10;;;28.10;97.30;;;;;;5038916;28;20049;-74
2022/09/03 11:44:15;;;;;;;0.22;0.10;;;27.80;97.60;;;;;;5025175;28;20029;-76
2022/09/03 11:46:56;;;;;;;0.28;0.10;;;27.70;97.50;;;;;;5010099;28;20029;-75
2022/09/03 11:49:29;;;;;;;1.35;0.13;;;27.60;97.60;;;;;;5042396;28;20162;-77
2022/09/03 11:52:08;;;;;;;0.20;0.10;;;27.70;97.70;;;;;;5026810;28;20037;-76
2022/09/03 11:54:43;;;;;;;2.45;0.10;;;28.00;97.70;;;;;;5044710;28;20108;-77
2022/09/03 11:57:27;;;;;;;0.50;0.10;;;28.30;97.20;;;;;;5048477;28;20397;-77
2022/09/03 11:59:53;;;;;;;0.52;0.03;;;28.20;97.60;;;;;;5065329;28;20104;-76
2022/09/03 12:02:32;;;;;;;1.00;0.10;;;28.20;97.60;;;;;;5031143;28;20175;-80
2022/09/03 12:05:09;;;;;;;0.93;0.20;;;28.00;97.30;;;;;;5027103;28;20029;-76
2022/09/03 12:08:02;;;;;;;0.32;0.10;;;27.80;97.20;;;;;;5027841;28;20037;-77
2022/09/03 12:10:54;;;;;;;0.30;0.10;;;27.80;97.80;;;;;;5044411;28;20025;-77
2022/09/03 12:13:44;;;;;;;0.40;0.10;;;28.00;97.40;;;;;;5043075;28;20032;-76
2022/09/03 12:16:28;;;;;;;0.47;0.10;;;28.10;97.40;;;;;;5026495;28;20033;-75
2022/09/03 12:19:01;;;;;;;1.30;0.10;;;28.20;97.60;;;;;;5044856;28;20503;-78
2022/09/03 12:21:27;;;;;;;1.38;0.10;;;28.40;98.00;;;;;;5005760;28;20045;-78
2022/09/03 12:23:53;;;;;;;0.73;0.10;;;28.30;97.20;;;;;;5007499;28;20033;-77
2022/09/03 12:26:26;;;;;;;2.30;0.10;;;28.10;97.80;;;;;;5025802;28;20116;-76
2022/09/03 12:28:53;;;;;;;0.30;0.10;;;28.40;97.80;;;;;;5024827;28;20034;-80
2022/09/03 12:31:30;;;;;;;0.38;0.10;;;28.30;97.90;;;;;;5025113;28;20526;-76
2022/09/03 12:34:06;;;;;;;0.52;0.10;;;28.30;98.10;;;;;;5007452;28;20363;-78
2022/09/03 12:36:40;;;;;;;0.43;0.13;;;28.10;97.50;;;;;;5025546;28;20373;-77
2022/09/03 12:39:17;;;;;;;0.20;0.10;;;28.10;97.90;;;;;;5008428;28;20071;-77
2022/09/03 12:42:03;;;;;;;0.40;0.10;;;28.30;97.60;;;;;;5006820;28;20049;-76
2022/09/03 12:44:39;;;;;;;1.73;0.10;;;28.10;97.70;;;;;;5023062;28;20045;-78
2022/09/03 12:47:06;;;;;;;1.58;0.10;;;28.40;98.10;;;;;;5015916;28;20386;-77
2022/09/03 12:49:52;;;;;;;1.45;0.20;;;28.50;98.10;;;;;;5011866;28;20417;-77
2022/09/03 12:52:32;;;;;;;1.75;0.20;;;28.70;97.80;;;;;;5022600;28;20304;-77
2022/09/03 12:55:23;;;;;;;1.30;0.10;;;28.50;98.00;;;;;;5040713;28;20260;-79
2022/09/03 12:57:56;;;;;;;0.30;0.10;;;28.20;97.80;;;;;;4991208;28;20029;-76
2022/09/03 13:00:21;;;;;;;0.60;0.10;;;28.40;97.90;;;;;;5025105;28;20061;-76
2022/09/03 13:03:10;;;;;;;1.00;0.10;;;28.10;97.60;;;;;;5026374;28;20141;-78
2022/09/03 13:06:06;;;;;;;0.28;0.00;;;28.10;97.90;;;;;;5024808;28;20038;-78
2022/09/03 13:08:53;;;;;;;0.70;0.10;;;28.20;97.90;;;;;;5003999;28;20064;-77
2022/09/03 13:11:21;;;;;;;0.63;0.10;;;28.20;98.10;;;;;;5007068;28;20045;-77
2022/09/03 13:13:55;;;;;;;0.60;0.17;;;28.30;97.50;;;;;;5024713;28;20036;-76
2022/09/03 13:16:41;;;;;;;0.40;0.17;;;28.10;97.50;;;;;;5024599;28;20029;-78
2022/09/03 13:19:23;;;;;;;1.48;0.17;;;27.90;97.80;;;;;;5004767;28;20025;-77
2022/09/03 13:22:08;;;;;;;0.80;0.10;;;27.80;97.90;;;;;;5005310;28;20429;-76
2022/09/03 13:24:34;;;;;;;0.40;0.10;;;28.00;98.50;;;;;;5007291;28;20072;-76